Bulk Poland — 9V2143 — position and weather

sailwx.info

Track history (hours):
 
Tides and Currents Weather Stations Pressure Air Temp Water Temp Dewpoint Dewpoint Depression Visibility Wind Speed Wind Dir Waves Ship Positions

Bulk Poland

Last reported at 2018-Apr-25 09:52 UTC. Time now 2018-Apr-25 10:13 UTC.
Position N 40°58' E 002°52'.

Length 227 m; draft 12.7 m.

Type: Cargo ship. MMSI: 564204000.

Date/timePositionNaut miles runAvg speedWind from/ knotsBaromVisibWave heightAir tempDewpointWater temp
2018-Apr-25 09:52N 40°58' E 002°52'411.5
2018-Apr-25 09:30N 40°55' E 002°49'4511.0
2018-Apr-25 05:25N 40°21' E 002°10'19510.7
2018-Apr-24 11:15N 37°45' W 000°21'3 9.6
2018-Apr-24 10:55N 37°43' W 000°23'4 9.3
2018-Apr-24 10:30N 37°39' W 000°26'5 9.1
2018-Apr-24 10:00N 37°35' W 000°29'5 9.3
2018-Apr-24 09:30N 37°32' W 000°33'5 9.2
2018-Apr-24 08:57N 37°28' W 000°38'4 9.4
2018-Apr-24 08:30N 37°26' W 000°41'5 9.4
2018-Apr-24 08:00N 37°22' W 000°46'5 9.5
2018-Apr-24 07:29N 37°19' W 000°50'5 9.0
2018-Apr-24 06:56N 37°16' W 000°55'4 8.6
2018-Apr-24 06:30N 37°14' W 000°59'216 9.7
2018-Apr-23 08:18N 36°01' W 005°12'412.7
2018-Apr-23 08:00N 36°01' W 005°16'511.0
2018-Apr-23 07:30N 36°04' W 005°22'4 7.8
2018-Apr-23 07:00N 36°08' W 005°23'1 1.3
2018-Apr-23 06:28N 36°09' W 005°23'0 0.2
2018-Apr-23 05:55N 36°09' W 005°23'0 0.1
2018-Apr-23 05:28N 36°09' W 005°23'0 0.0
2018-Apr-23 04:58N 36°09' W 005°23'0 0.1
2018-Apr-23 04:28N 36°09' W 005°23'0 0.1
2018-Apr-23 03:58N 36°09' W 005°23'0 0.3
2018-Apr-23 03:28N 36°09' W 005°23'0 0.1
2018-Apr-23 02:58N 36°09' W 005°23'0 0.0
2018-Apr-23 02:22N 36°09' W 005°23'0 0.0
2018-Apr-23 00:28N 36°09' W 005°23'0 0.0
2018-Apr-22 23:46N 36°09' W 005°23'4 1.0
2018-Apr-22 19:56N 36°05' W 005°21'2 4.6
2018-Apr-22 19:30N 36°05' W 005°18'3 6.0
2018-Apr-22 18:59N 36°07' W 005°15'3 6.4
2018-Apr-22 18:27N 36°09' W 005°13'1 1.6
2018-Apr-22 17:47N 36°10' W 005°12'2 4.3
2018-Apr-22 17:25N 36°09' W 005°12'4 1.2
2018-Apr-22 14:26N 36°07' W 005°08'2 4.7
2018-Apr-22 13:59N 36°05' W 005°10'1 1.0
2018-Apr-22 13:27N 36°05' W 005°10'1 1.2
2018-Apr-22 12:58N 36°06' W 005°09'1 1.2
2018-Apr-22 12:28N 36°06' W 005°09'1 1.1
2018-Apr-22 11:59N 36°06' W 005°08'6 1.6
2018-Apr-22 08:18N 36°01' W 005°12'412.0
2018-Apr-22 08:00N 36°00' W 005°16'611.7
2018-Apr-22 07:30N 35°59' W 005°23'611.8
2018-Apr-22 07:00N 35°57' W 005°30'  
2018-Apr-19 14:22N 28°30' W 014°46'410.4
2018-Apr-19 14:00N 28°26' W 014°48'510.7
2018-Apr-19 13:30N 28°21' W 014°50'510.6
2018-Apr-19 13:00N 28°16' W 014°52'510.3
2018-Apr-19 12:30N 28°11' W 014°54'510.0
2018-Apr-19 11:59N 28°06' W 014°55'510.1
2018-Apr-19 11:30N 28°02' W 014°57'510.1
2018-Apr-19 11:00N 27°57' W 014°59'510.0
2018-Apr-19 10:29N 27°52' W 015°01'5 9.8
2018-Apr-19 10:00N 27°47' W 015°03'5 9.5
2018-Apr-19 09:30N 27°43' W 015°04'  
Track history (hours):
 
Tides and Currents Weather Stations Pressure Air Temp Water Temp Dewpoint Dewpoint Depression Visibility Wind Speed Wind Dir Waves Ship Positions

Bulk Poland

Last reported at 2018-Apr-25 09:52 UTC. Time now 2018-Apr-25 10:13 UTC.
Position N 40°58' E 002°52'.

Length 227 m; draft 12.7 m.

Type: Cargo ship. MMSI: 564204000.

Date/timePositionNaut miles runAvg speedWind from/ knotsBaromVisibWave heightAir tempDewpointWater temp
2018-Apr-25 09:52N 40°58' E 002°52'411.5
2018-Apr-25 09:30N 40°55' E 002°49'4511.0
2018-Apr-25 05:25N 40°21' E 002°10'19510.7
2018-Apr-24 11:15N 37°45' W 000°21'3 9.6
2018-Apr-24 10:55N 37°43' W 000°23'4 9.3
2018-Apr-24 10:30N 37°39' W 000°26'5 9.1
2018-Apr-24 10:00N 37°35' W 000°29'5 9.3
2018-Apr-24 09:30N 37°32' W 000°33'5 9.2
2018-Apr-24 08:57N 37°28' W 000°38'4 9.4
2018-Apr-24 08:30N 37°26' W 000°41'5 9.4
2018-Apr-24 08:00N 37°22' W 000°46'5 9.5
2018-Apr-24 07:29N 37°19' W 000°50'5 9.0
2018-Apr-24 06:56N 37°16' W 000°55'4 8.6
2018-Apr-24 06:30N 37°14' W 000°59'216 9.7
2018-Apr-23 08:18N 36°01' W 005°12'412.7
2018-Apr-23 08:00N 36°01' W 005°16'511.0
2018-Apr-23 07:30N 36°04' W 005°22'4 7.8
2018-Apr-23 07:00N 36°08' W 005°23'1 1.3
2018-Apr-23 06:28N 36°09' W 005°23'0 0.2
2018-Apr-23 05:55N 36°09' W 005°23'0 0.1
2018-Apr-23 05:28N 36°09' W 005°23'0 0.0
2018-Apr-23 04:58N 36°09' W 005°23'0 0.1
2018-Apr-23 04:28N 36°09' W 005°23'0 0.1
2018-Apr-23 03:58N 36°09' W 005°23'0 0.3
2018-Apr-23 03:28N 36°09' W 005°23'0 0.1
2018-Apr-23 02:58N 36°09' W 005°23'0 0.0
2018-Apr-23 02:22N 36°09' W 005°23'0 0.0
2018-Apr-23 00:28N 36°09' W 005°23'0 0.0
2018-Apr-22 23:46N 36°09' W 005°23'4 1.0
2018-Apr-22 19:56N 36°05' W 005°21'2 4.6
2018-Apr-22 19:30N 36°05' W 005°18'3 6.0
2018-Apr-22 18:59N 36°07' W 005°15'3 6.4
2018-Apr-22 18:27N 36°09' W 005°13'1 1.6
2018-Apr-22 17:47N 36°10' W 005°12'2 4.3
2018-Apr-22 17:25N 36°09' W 005°12'4 1.2
2018-Apr-22 14:26N 36°07' W 005°08'2 4.7
2018-Apr-22 13:59N 36°05' W 005°10'1 1.0
2018-Apr-22 13:27N 36°05' W 005°10'1 1.2
2018-Apr-22 12:58N 36°06' W 005°09'1 1.2
2018-Apr-22 12:28N 36°06' W 005°09'1 1.1
2018-Apr-22 11:59N 36°06' W 005°08'6 1.6
2018-Apr-22 08:18N 36°01' W 005°12'412.0
2018-Apr-22 08:00N 36°00' W 005°16'611.7
2018-Apr-22 07:30N 35°59' W 005°23'611.8
2018-Apr-22 07:00N 35°57' W 005°30'  
2018-Apr-19 14:22N 28°30' W 014°46'410.4
2018-Apr-19 14:00N 28°26' W 014°48'510.7
2018-Apr-19 13:30N 28°21' W 014°50'510.6
2018-Apr-19 13:00N 28°16' W 014°52'510.3
2018-Apr-19 12:30N 28°11' W 014°54'510.0
2018-Apr-19 11:59N 28°06' W 014°55'510.1
2018-Apr-19 11:30N 28°02' W 014°57'510.1
2018-Apr-19 11:00N 27°57' W 014°59'510.0
2018-Apr-19 10:29N 27°52' W 015°01'5 9.8
2018-Apr-19 10:00N 27°47' W 015°03'5 9.5
2018-Apr-19 09:30N 27°43' W 015°04'  

Dump ship's entire track history